LSMA

Details ICAO LSMA
Name Alpnach
Region Switzerland
Timezone Europe/Zurich (UTC+1.0)
Plans Departing 11
Arriving 4
Stats Elevation 1,460 ft / 445 m (AMSL)
Location 46.943334° 8.285000°
Runways 1
Magnetic Variation 2.278° E
Sunrise 2017-12-14 07:06:19 UTC / 2017-12-14 08:06:19 Local
Sunset 2017-12-14 15:39:33 UTC / 2017-12-14 16:39:33 Local
Advertisement - Login to hide

Runways

ID Width Length Bearing (true) Bearing (mag) Surface Threshold Offset Overrun Length
01 130 ft / 40 m 4,936 ft / 1,504 m 9.69° 7.41° Asphalt 0 ft / 0 m 328 ft / 100 m
19 130 ft / 40 m 4,936 ft / 1,504 m 189.69° 187.41° Asphalt 0 ft / 0 m 1,640 ft / 500 m

Map

Weather


0- 5 10 15 20 25 30 35+ Temperature / ° C

Clouds and Precipitation
Forecast for 2017-12-15 00:00 UTC. Updated 2 hours ago

Ground ~20,000 ft ~40,000 ft Winds

METAR

LSMA 142150Z AUTO 18003KT 140V300 4200NDV -RA FEW005 SCT017 OVC021 01/01 Q0998 RERASN RMK

TAF

TAF AMD LSMA 142126Z 1421/1523 VRB03KT 9999 -RA FEW012 BKN015 OVC030 TEMPO 1417/1503 RA BKN012 PROB30 TEMPO 1420/1503 2500 SNRA BKN008 BECMG 1503/1506 NSW

Frequencies

Tower 119.62 MHz TWR
Warning: Do not use this data for real-world aviation or navigation. No guarantee of current accuracy is given.